createdAt,value
2022-11-07T00:02:10.315Z,23.80
2022-11-07T00:04:40.173Z,23.80
2022-11-07T00:07:10.848Z,23.80
2022-11-07T00:09:38.999Z,23.90
2022-11-07T00:12:07.696Z,23.80
2022-11-07T00:14:35.925Z,23.60
2022-11-07T00:17:03.889Z,23.80
2022-11-07T00:19:31.817Z,23.90
2022-11-07T00:22:01.139Z,23.90
2022-11-07T00:24:29.146Z,24.00
2022-11-07T00:26:57.172Z,24.10
2022-11-07T00:29:25.216Z,24.20
2022-11-07T00:31:53.234Z,24.30
2022-11-07T00:34:21.284Z,24.00
2022-11-07T00:36:49.266Z,23.90
2022-11-07T00:39:18.776Z,24.00
2022-11-07T00:41:50.445Z,24.00
2022-11-07T00:44:18.459Z,23.90
2022-11-07T00:46:46.432Z,24.00
2022-11-07T00:49:14.374Z,23.90
2022-11-07T00:51:42.558Z,23.90
2022-11-07T00:54:10.650Z,23.80
2022-11-07T00:56:39.963Z,23.90
2022-11-07T00:59:09.989Z,23.90
2022-11-07T01:01:38.293Z,23.80
2022-11-07T01:04:24.226Z,23.50
2022-11-07T01:06:52.196Z,23.70
2022-11-07T01:09:22.436Z,23.80
2022-11-07T01:11:51.883Z,23.80
2022-11-07T01:14:21.457Z,24.00
2022-11-07T01:16:49.406Z,23.90
2022-11-07T01:19:19.489Z,24.00
2022-11-07T01:21:47.546Z,24.20
2022-11-07T01:24:16.454Z,24.30
2022-11-07T01:26:47.799Z,24.40
2022-11-07T01:29:17.855Z,24.40
2022-11-07T01:31:46.078Z,24.40
2022-11-07T01:34:14.069Z,24.50
2022-11-07T01:36:42.058Z,24.60
2022-11-07T01:39:10.576Z,24.70
2022-11-07T01:41:40.814Z,24.60
2022-11-07T01:44:45.954Z,24.70
2022-11-07T01:47:15.306Z,23.40
2022-11-07T01:49:44.407Z,23.30
2022-11-07T01:52:16.580Z,23.40
2022-11-07T01:54:49.848Z,22.50
2022-11-07T01:57:22.663Z,23.30
2022-11-07T01:59:54.897Z,23.50
2022-11-07T02:02:25.540Z,22.90
2022-11-07T02:04:54.123Z,23.00
2022-11-07T02:07:24.139Z,23.00
2022-11-07T02:09:53.524Z,23.30
2022-11-07T02:12:23.462Z,23.00
2022-11-07T02:14:51.564Z,23.40
2022-11-07T02:17:19.955Z,23.60
2022-11-07T02:19:51.901Z,23.80
2022-11-07T02:22:27.067Z,23.90
2022-11-07T02:24:59.374Z,24.10
2022-11-07T02:27:29.980Z,24.30
2022-11-07T02:30:02.360Z,24.20
2022-11-07T02:32:33.486Z,23.50
2022-11-07T02:35:04.657Z,23.60
2022-11-07T02:37:36.599Z,24.00
2022-11-07T02:40:09.159Z,23.60
2022-11-07T02:42:44.237Z,24.00
2022-11-07T02:45:14.904Z,24.20
2022-11-07T02:47:43.419Z,24.40
2022-11-07T02:50:13.376Z,24.50
2022-11-07T02:52:43.318Z,24.70
2022-11-07T02:55:14.330Z,24.80
2022-11-07T02:57:45.622Z,24.90
2022-11-07T03:00:15.833Z,24.90
2022-11-07T03:02:46.954Z,24.90
2022-11-07T03:05:15.985Z,24.90
2022-11-07T03:07:46.416Z,24.80
2022-11-07T03:10:16.951Z,24.90
2022-11-07T03:12:44.918Z,25.00
2022-11-07T03:15:13.715Z,24.90
2022-11-07T03:17:41.954Z,25.10
2022-11-07T03:20:11.384Z,25.10
2022-11-07T03:22:39.820Z,25.10
2022-11-07T03:25:09.189Z,25.00
2022-11-07T03:27:46.991Z,25.00
2022-11-07T03:30:15.324Z,24.90
2022-11-07T03:32:43.313Z,24.80
2022-11-07T03:35:11.762Z,25.00
2022-11-07T03:37:39.895Z,24.70
2022-11-07T03:40:09.074Z,24.80
2022-11-07T03:42:41.188Z,24.90
2022-11-07T03:45:10.994Z,24.90
2022-11-07T03:47:40.486Z,25.00
2022-11-07T03:50:10.332Z,24.90
2022-11-07T03:52:38.281Z,25.00
2022-11-07T03:55:07.601Z,25.00
2022-11-07T03:57:35.684Z,25.00
2022-11-07T04:00:06.569Z,25.10
2022-11-07T04:02:39.986Z,24.00
2022-11-07T04:05:08.633Z,24.00
2022-11-07T04:07:36.591Z,24.10
2022-11-07T04:10:04.876Z,23.10
2022-11-07T04:12:50.518Z,23.80
2022-11-07T04:15:36.671Z,23.90
2022-11-07T04:18:04.782Z,23.60
2022-11-07T04:20:32.714Z,24.10
2022-11-07T04:23:00.755Z,24.30
2022-11-07T04:25:46.379Z,24.50
2022-11-07T04:28:16.179Z,24.60
2022-11-07T04:30:45.463Z,24.70
2022-11-07T04:33:13.644Z,24.80
2022-11-07T04:35:41.895Z,24.90
2022-11-07T04:38:09.798Z,24.90
2022-11-07T04:40:37.708Z,25.00
2022-11-07T04:43:09.141Z,25.00
2022-11-07T04:45:37.825Z,25.00
2022-11-07T04:48:08.493Z,25.10
2022-11-07T04:50:36.453Z,25.10
2022-11-07T04:53:04.521Z,25.10
2022-11-07T04:55:32.472Z,25.10
2022-11-07T04:58:00.519Z,25.20
2022-11-07T05:00:28.450Z,24.40
2022-11-07T05:02:56.560Z,24.80
2022-11-07T05:05:25.934Z,24.90
2022-11-07T05:07:53.872Z,24.90
2022-11-07T05:10:23.727Z,24.90
2022-11-07T05:12:52.024Z,24.40
2022-11-07T05:15:20.196Z,24.50
2022-11-07T05:17:51.195Z,24.60
2022-11-07T05:20:30.244Z,24.80
2022-11-07T05:23:15.337Z,24.80
2022-11-07T05:25:45.545Z,24.90
2022-11-07T05:28:15.514Z,24.80
2022-11-07T05:30:44.692Z,24.90
2022-11-07T05:33:14.865Z,25.00
2022-11-07T05:35:44.636Z,25.00
2022-11-07T05:38:13.086Z,25.10
2022-11-07T05:40:42.072Z,25.10
2022-11-07T05:43:12.329Z,25.10
2022-11-07T05:45:41.130Z,24.90
2022-11-07T05:48:11.257Z,23.70
2022-11-07T05:50:40.070Z,24.30
2022-11-07T05:53:09.649Z,23.90
2022-11-07T05:55:37.700Z,24.40
2022-11-07T05:58:10.461Z,24.20
2022-11-07T06:00:38.456Z,24.20
2022-11-07T06:03:06.487Z,24.20
2022-11-07T06:05:34.558Z,24.20
2022-11-07T06:08:02.594Z,24.40
2022-11-07T06:10:31.863Z,24.60
2022-11-07T06:13:00.692Z,24.70
2022-11-07T06:15:30.438Z,24.70
2022-11-07T06:18:00.621Z,24.90
2022-11-07T06:20:28.877Z,24.90
2022-11-07T06:22:58.769Z,25.00
2022-11-07T06:25:26.941Z,25.00
2022-11-07T06:28:00.495Z,25.10
2022-11-07T06:30:28.712Z,25.00
2022-11-07T06:32:56.841Z,24.80
2022-11-07T06:35:24.782Z,24.90
2022-11-07T06:37:52.726Z,25.10
2022-11-07T06:40:23.082Z,25.20
2022-11-07T06:42:51.010Z,25.20
2022-11-07T06:45:20.342Z,24.90
2022-11-07T06:47:48.382Z,24.80
2022-11-07T06:50:16.421Z,24.90
2022-11-07T06:52:44.351Z,25.00
2022-11-07T06:55:12.282Z,25.10
2022-11-07T06:57:40.225Z,24.90
2022-11-07T07:00:11.716Z,24.50
2022-11-07T07:05:31.333Z,24.80
2022-11-07T07:07:59.275Z,25.00
2022-11-07T07:10:27.577Z,25.20
2022-11-07T07:12:56.439Z,24.90
2022-11-07T07:15:24.578Z,25.10
2022-11-07T07:17:53.845Z,25.10
2022-11-07T07:20:21.815Z,25.10
2022-11-07T07:22:56.052Z,25.30
2022-11-07T07:25:27.647Z,25.40
2022-11-07T07:27:55.793Z,25.50
2022-11-07T07:30:23.825Z,25.60
2022-11-07T07:32:53.138Z,25.30
2022-11-07T07:35:21.923Z,25.50
2022-11-07T07:37:51.824Z,25.60
2022-11-07T07:40:20.309Z,25.70
2022-11-07T07:42:48.419Z,25.80
2022-11-07T07:45:17.303Z,25.90
2022-11-07T07:47:45.531Z,26.00
2022-11-07T07:50:15.142Z,26.00
2022-11-07T07:52:43.753Z,26.00
2022-11-07T07:55:11.936Z,26.00
2022-11-07T07:57:41.067Z,26.00
2022-11-07T08:00:11.268Z,26.00
2022-11-07T08:02:43.560Z,25.90
2022-11-07T08:05:12.669Z,25.70
2022-11-07T08:07:48.082Z,25.80
2022-11-07T08:10:40.400Z,25.90
2022-11-07T08:13:05.153Z,25.90
2022-11-07T08:15:34.103Z,26.10
2022-11-07T08:18:03.043Z,26.10
2022-11-07T08:20:31.160Z,26.10
2022-11-07T08:23:04.357Z,25.80
2022-11-07T08:25:32.538Z,25.70
2022-11-07T08:28:01.222Z,25.30
2022-11-07T08:30:31.630Z,24.80
2022-11-07T08:33:01.043Z,24.50
2022-11-07T08:35:29.270Z,24.20
2022-11-07T08:37:57.310Z,23.70
2022-11-07T08:40:26.917Z,23.50
2022-11-07T08:42:59.292Z,23.60
2022-11-07T08:45:27.332Z,23.50
2022-11-07T08:47:58.004Z,23.50
2022-11-07T08:50:26.349Z,23.30
2022-11-07T08:52:59.584Z,23.20
2022-11-07T08:55:31.774Z,23.80
2022-11-07T08:58:00.947Z,24.00
2022-11-07T09:00:30.056Z,23.70
2022-11-07T09:03:24.317Z,23.70
2022-11-07T09:05:45.988Z,23.80
2022-11-07T09:08:16.251Z,23.90
2022-11-07T09:10:45.646Z,23.80
2022-11-07T09:13:15.130Z,23.50
2022-11-07T09:15:49.330Z,23.20
2022-11-07T09:18:18.816Z,23.00
2022-11-07T09:20:47.228Z,23.30
2022-11-07T09:23:15.664Z,23.20
2022-11-07T09:25:45.638Z,23.40
2022-11-07T09:28:13.686Z,23.00
2022-11-07T09:30:41.648Z,22.90
2022-11-07T09:33:09.616Z,22.20
2022-11-07T09:35:37.585Z,21.60
2022-11-07T09:38:05.643Z,21.40
2022-11-07T09:40:44.418Z,21.50
2022-11-07T09:43:39.707Z,21.30
2022-11-07T09:46:17.258Z,21.10
2022-11-07T09:48:50.470Z,20.80
2022-11-07T09:51:28.265Z,20.90
2022-11-07T09:54:01.857Z,20.80
2022-11-07T09:56:32.732Z,20.50
2022-11-07T09:59:13.844Z,20.30
2022-11-07T10:01:42.660Z,20.40
2022-11-07T10:04:24.671Z,20.40
2022-11-07T10:06:59.244Z,20.50
2022-11-07T10:09:35.637Z,21.00
2022-11-07T10:12:14.383Z,21.60
2022-11-07T10:14:53.570Z,21.10
2022-11-07T10:17:29.832Z,20.90
2022-11-07T10:20:24.552Z,20.70
2022-11-07T10:23:07.229Z,20.50
2022-11-07T10:25:43.010Z,20.60
2022-11-07T10:28:15.738Z,20.30
2022-11-07T10:30:48.204Z,20.50
2022-11-07T10:33:28.284Z,21.10
2022-11-07T10:36:03.063Z,21.40
2022-11-07T10:38:33.154Z,21.40
2022-11-07T10:41:01.212Z,20.90
2022-11-07T10:43:34.042Z,20.70
2022-11-07T10:46:06.261Z,20.70
2022-11-07T10:48:34.209Z,20.50
2022-11-07T10:51:02.195Z,20.30
2022-11-07T10:53:30.290Z,20.70
2022-11-07T10:55:59.783Z,20.80
2022-11-07T10:58:30.812Z,21.20
2022-11-07T11:01:06.162Z,21.10
2022-11-07T11:03:45.150Z,20.60
2022-11-07T11:06:23.246Z,20.50
2022-11-07T11:08:52.878Z,20.70
2022-11-07T11:11:32.884Z,20.80
2022-11-07T11:14:06.521Z,20.80
2022-11-07T11:16:38.809Z,20.70
2022-11-07T11:19:17.441Z,20.60
2022-11-07T11:21:47.289Z,20.50
2022-11-07T11:24:33.134Z,20.20
2022-11-07T11:27:05.526Z,20.00
2022-11-07T11:29:40.470Z,20.20
2022-11-07T11:32:21.243Z,20.80
2022-11-07T11:35:06.648Z,21.00
2022-11-07T11:37:39.886Z,20.70
2022-11-07T11:40:33.225Z,20.70
2022-11-07T11:43:08.327Z,20.40
2022-11-07T11:45:44.640Z,20.20
2022-11-07T11:48:24.673Z,20.40
2022-11-07T11:50:57.904Z,20.50
2022-11-07T11:53:26.000Z,20.60
2022-11-07T11:56:17.454Z,20.90
2022-11-07T11:58:54.783Z,20.80
2022-11-07T12:01:33.173Z,20.60
2022-11-07T12:04:18.527Z,20.50
2022-11-07T12:06:47.483Z,20.40
2022-11-07T12:09:33.911Z,20.50
2022-11-07T12:12:12.406Z,20.90
2022-11-07T12:14:57.587Z,20.80
2022-11-07T12:17:31.617Z,20.40
2022-11-07T12:20:12.184Z,19.90
2022-11-07T12:22:50.962Z,19.90
2022-11-07T12:25:26.748Z,19.90
2022-11-07T12:28:05.562Z,19.80
2022-11-07T12:30:43.687Z,20.10
2022-11-07T12:33:21.553Z,20.10
2022-11-07T12:35:55.421Z,20.10
2022-11-07T12:38:58.917Z,20.00
2022-11-07T12:41:38.840Z,20.10
2022-11-07T12:44:21.288Z,20.40
2022-11-07T12:46:53.928Z,20.70
2022-11-07T12:49:46.633Z,21.10
2022-11-07T12:52:41.370Z,21.10
2022-11-07T12:55:20.426Z,20.90
2022-11-07T12:57:52.541Z,21.00
2022-11-07T13:00:27.672Z,21.20
2022-11-07T13:03:26.674Z,21.20
2022-11-07T13:06:08.964Z,20.90
2022-11-07T13:08:42.226Z,20.90
2022-11-07T13:11:18.311Z,21.10
2022-11-07T13:14:05.742Z,21.10
2022-11-07T13:16:37.058Z,21.20
2022-11-07T13:19:12.247Z,21.50
2022-11-07T13:21:43.780Z,21.60
2022-11-07T13:24:22.226Z,21.50
2022-11-07T13:26:53.104Z,21.50
2022-11-07T13:29:35.411Z,21.50
2022-11-07T13:32:20.330Z,21.30
2022-11-07T13:34:57.688Z,21.60
2022-11-07T13:37:30.633Z,22.00
2022-11-07T13:40:04.770Z,22.30
2022-11-07T13:42:34.580Z,22.20
2022-11-07T13:45:17.932Z,21.70
2022-11-07T13:47:46.645Z,21.40
2022-11-07T13:50:20.853Z,21.40
2022-11-07T13:53:03.531Z,21.00
2022-11-07T13:55:42.360Z,20.90
2022-11-07T13:58:13.460Z,20.50
2022-11-07T14:00:41.466Z,20.30
2022-11-07T14:03:24.161Z,20.20
2022-11-07T14:05:52.731Z,20.40
2022-11-07T14:08:23.750Z,20.70
2022-11-07T14:10:54.245Z,20.50
2022-11-07T14:13:25.949Z,21.00
2022-11-07T14:15:56.262Z,20.90
2022-11-07T14:18:27.830Z,21.00
2022-11-07T14:20:57.607Z,21.30
2022-11-07T14:23:29.375Z,21.70
2022-11-07T14:26:01.110Z,21.60
2022-11-07T14:28:36.697Z,21.30
2022-11-07T14:31:06.568Z,21.00
2022-11-07T14:33:34.770Z,21.10
2022-11-07T14:36:09.052Z,21.70
2022-11-07T14:38:37.083Z,21.80
2022-11-07T14:41:06.800Z,21.70
2022-11-07T14:43:35.595Z,21.80
2022-11-07T14:46:14.321Z,21.90
2022-11-07T14:48:44.369Z,21.70
2022-11-07T14:51:14.569Z,22.00
2022-11-07T14:53:52.190Z,22.20
2022-11-07T14:56:29.032Z,22.40
2022-11-07T14:58:57.603Z,22.70
2022-11-07T15:01:28.795Z,23.10
2022-11-07T15:03:58.550Z,23.30
2022-11-07T15:06:33.173Z,23.00
2022-11-07T15:09:02.984Z,22.80
2022-11-07T15:11:34.869Z,23.00
2022-11-07T15:14:05.092Z,22.90
2022-11-07T15:16:37.706Z,22.80
2022-11-07T15:19:08.655Z,22.30
2022-11-07T15:21:39.144Z,21.60
2022-11-07T15:24:33.248Z,21.30
2022-11-07T15:27:04.753Z,21.30
2022-11-07T15:29:35.812Z,20.80
2022-11-07T15:32:12.955Z,20.90
2022-11-07T15:35:00.815Z,20.60
2022-11-07T15:37:29.743Z,20.30
2022-11-07T15:39:57.717Z,20.70
2022-11-07T15:42:27.004Z,20.60
2022-11-07T15:44:54.955Z,21.00
2022-11-07T15:47:23.619Z,21.00
2022-11-07T15:49:51.859Z,21.60
2022-11-07T15:52:19.820Z,22.10
2022-11-07T15:54:47.949Z,22.10
2022-11-07T15:57:15.929Z,22.30
2022-11-07T15:59:45.311Z,21.80
2022-11-07T16:02:17.278Z,21.40
2022-11-07T16:04:45.360Z,21.40
2022-11-07T16:07:16.880Z,21.70
2022-11-07T16:09:48.483Z,21.70
2022-11-07T16:12:18.396Z,21.90
2022-11-07T16:14:47.830Z,22.20
2022-11-07T16:17:16.887Z,22.10
2022-11-07T16:19:44.894Z,22.00
2022-11-07T16:22:13.427Z,21.90
2022-11-07T16:24:41.444Z,22.10
2022-11-07T16:27:11.322Z,22.20
2022-11-07T16:29:40.913Z,22.20
2022-11-07T16:32:17.587Z,22.20
2022-11-07T16:34:46.718Z,21.80
2022-11-07T16:37:14.694Z,21.00
2022-11-07T16:39:42.709Z,20.90
2022-11-07T16:42:13.559Z,20.70
2022-11-07T16:44:41.525Z,20.60
2022-11-07T16:47:14.813Z,20.40
2022-11-07T16:49:42.965Z,20.50
2022-11-07T16:52:15.794Z,20.50
2022-11-07T16:54:43.985Z,20.60
2022-11-07T16:57:13.864Z,20.60
2022-11-07T16:59:43.151Z,20.80
2022-11-07T17:02:21.295Z,20.90
2022-11-07T17:04:50.218Z,21.00
2022-11-07T17:07:19.105Z,21.20
2022-11-07T17:09:49.930Z,21.30
2022-11-07T17:12:20.789Z,21.20
2022-11-07T17:14:49.155Z,22.10
2022-11-07T17:17:20.137Z,22.00
2022-11-07T17:19:48.709Z,22.00
2022-11-07T17:22:17.681Z,21.60
2022-11-07T17:24:47.214Z,21.40
2022-11-07T17:27:21.603Z,21.20
2022-11-07T17:29:51.171Z,21.10
2022-11-07T17:32:20.855Z,21.20
2022-11-07T17:35:04.664Z,21.60
2022-11-07T17:37:37.605Z,21.90
2022-11-07T17:40:07.698Z,22.00
2022-11-07T17:42:38.253Z,22.10
2022-11-07T17:45:07.639Z,22.50
2022-11-07T17:47:37.279Z,22.30
2022-11-07T17:50:06.003Z,22.00
2022-11-07T17:52:33.971Z,21.80
2022-11-07T17:55:01.942Z,21.90
2022-11-07T17:57:32.337Z,22.10
2022-11-07T18:00:00.443Z,21.90
2022-11-07T18:02:28.534Z,21.90
2022-11-07T18:04:58.389Z,22.20
2022-11-07T18:07:26.398Z,22.20
2022-11-07T18:09:54.797Z,22.40
2022-11-07T18:12:23.330Z,22.40
2022-11-07T18:14:51.301Z,22.90
2022-11-07T18:17:19.248Z,22.80
2022-11-07T18:19:48.906Z,22.70
2022-11-07T18:22:18.502Z,22.80
2022-11-07T18:24:46.995Z,23.10
2022-11-07T18:27:14.935Z,23.10
2022-11-07T18:29:43.152Z,23.00
2022-11-07T18:32:11.164Z,23.50
2022-11-07T18:34:39.088Z,23.60
2022-11-07T18:37:07.025Z,23.20
2022-11-07T18:39:36.362Z,23.40
2022-11-07T18:42:04.385Z,23.20
2022-11-07T18:44:32.432Z,23.20
2022-11-07T18:47:00.374Z,23.00
2022-11-07T18:49:28.358Z,22.80
2022-11-07T18:51:57.325Z,23.00
2022-11-07T18:54:26.189Z,23.20
2022-11-07T18:56:56.095Z,23.00
2022-11-07T18:59:24.030Z,23.30
2022-11-07T19:01:52.087Z,23.70
2022-11-07T19:04:20.041Z,23.60
2022-11-07T19:06:57.589Z,23.30
2022-11-07T19:09:30.486Z,23.10
2022-11-07T19:12:00.901Z,23.30
2022-11-07T19:14:34.030Z,23.50
2022-11-07T19:17:02.060Z,23.40
2022-11-07T19:19:32.332Z,23.60
2022-11-07T19:22:00.261Z,23.60
2022-11-07T19:24:28.185Z,23.60
2022-11-07T19:26:56.107Z,23.80
2022-11-07T19:29:25.846Z,23.80
2022-11-07T19:31:54.891Z,23.90
2022-11-07T19:34:22.832Z,24.00
2022-11-07T19:36:51.010Z,24.00
2022-11-07T19:39:20.699Z,23.50
2022-11-07T19:41:50.689Z,23.60
2022-11-07T19:44:18.814Z,23.50
2022-11-07T19:46:48.080Z,23.50
2022-11-07T19:49:16.082Z,23.50
2022-11-07T19:51:43.993Z,23.40
2022-11-07T19:54:11.932Z,23.20
2022-11-07T19:56:39.934Z,23.10
2022-11-07T19:59:08.122Z,22.50
2022-11-07T20:01:36.506Z,22.60
2022-11-07T20:04:13.591Z,22.20
2022-11-07T20:06:41.548Z,21.90
2022-11-07T20:09:10.942Z,22.10
2022-11-07T20:11:38.928Z,22.00
2022-11-07T20:14:07.400Z,22.10
2022-11-07T20:16:37.106Z,22.40
2022-11-07T20:19:06.926Z,22.20
2022-11-07T20:21:35.007Z,22.10
2022-11-07T20:24:03.013Z,22.00
2022-11-07T20:26:33.488Z,22.00
2022-11-07T20:29:01.497Z,22.10
2022-11-07T20:31:34.480Z,22.20
2022-11-07T20:34:04.422Z,22.30
2022-11-07T20:36:34.043Z,22.10
2022-11-07T20:39:03.184Z,22.00
2022-11-07T20:41:31.243Z,22.00
2022-11-07T20:44:02.024Z,21.60
2022-11-07T20:46:31.163Z,21.70
2022-11-07T20:48:59.247Z,21.70
2022-11-07T20:51:27.267Z,21.80
2022-11-07T20:53:58.971Z,21.70
2022-11-07T20:56:28.126Z,21.50
2022-11-07T20:58:56.599Z,21.60
2022-11-07T21:01:27.724Z,21.20
2022-11-07T21:03:55.837Z,21.00
2022-11-07T21:06:23.752Z,20.90
2022-11-07T21:08:52.186Z,21.40
2022-11-07T21:11:21.559Z,21.30
2022-11-07T21:13:52.898Z,21.10
2022-11-07T21:16:22.191Z,21.20
2022-11-07T21:18:50.782Z,21.20
2022-11-07T21:21:21.325Z,21.10
2022-11-07T21:23:51.040Z,21.20
2022-11-07T21:26:22.240Z,21.40
2022-11-07T21:28:50.265Z,21.50
2022-11-07T21:31:21.759Z,21.60
2022-11-07T21:33:50.080Z,21.50
2022-11-07T21:36:19.598Z,21.40
2022-11-07T21:38:49.794Z,21.40
2022-11-07T21:41:18.075Z,21.60
2022-11-07T21:43:47.966Z,21.70
2022-11-07T21:46:18.407Z,21.70
2022-11-07T21:48:47.733Z,21.70
2022-11-07T21:51:17.910Z,21.80
2022-11-07T21:53:46.531Z,21.80
2022-11-07T21:56:16.809Z,21.40
2022-11-07T21:58:45.490Z,21.30
2022-11-07T22:01:14.810Z,21.00
2022-11-07T22:06:33.444Z,21.10
2022-11-07T22:09:01.575Z,21.00
2022-11-07T22:11:29.586Z,21.00
2022-11-07T22:13:59.936Z,21.10
2022-11-07T22:16:29.678Z,21.20
2022-11-07T22:18:59.105Z,21.30
2022-11-07T22:21:27.697Z,21.40
2022-11-07T22:23:57.187Z,21.20
2022-11-07T22:26:26.500Z,21.10
2022-11-07T22:28:55.128Z,21.10
2022-11-07T22:31:25.309Z,20.60
2022-11-07T22:33:55.592Z,20.90
2022-11-07T22:36:24.225Z,21.10
2022-11-07T22:38:52.628Z,21.30
2022-11-07T22:41:22.023Z,21.40
2022-11-07T22:43:50.834Z,21.50
2022-11-07T22:46:20.438Z,21.70
2022-11-07T22:48:49.410Z,21.60
2022-11-07T22:51:20.803Z,21.70
2022-11-07T22:53:49.084Z,21.30
2022-11-07T22:56:19.252Z,20.80
2022-11-07T22:58:48.337Z,20.90
2022-11-07T23:01:18.444Z,20.70
2022-11-07T23:03:48.702Z,21.00
2022-11-07T23:06:19.269Z,20.60
2022-11-07T23:08:48.085Z,20.50
2022-11-07T23:14:07.643Z,20.70
2022-11-07T23:16:37.589Z,20.40
2022-11-07T23:19:08.102Z,20.80
2022-11-07T23:21:37.820Z,20.90
2022-11-07T23:24:06.758Z,20.60
2022-11-07T23:26:35.441Z,20.50
2022-11-07T23:29:10.459Z,20.50
2022-11-07T23:31:39.816Z,20.50
2022-11-07T23:34:07.813Z,20.40
2022-11-07T23:36:37.443Z,20.40
2022-11-07T23:39:06.624Z,20.30
2022-11-07T23:41:35.145Z,20.50
2022-11-07T23:44:03.199Z,20.50
2022-11-07T23:46:49.036Z,20.60
2022-11-07T23:49:34.688Z,20.90
2022-11-07T23:52:04.514Z,20.60
2022-11-07T23:54:50.164Z,20.40
2022-11-07T23:57:18.095Z,20.40
